createdAt,value
2023-04-24T00:00:47.619Z,11.19
2023-04-24T00:01:47.642Z,11.19
2023-04-24T00:02:47.841Z,11.20
2023-04-24T00:03:47.692Z,11.19
2023-04-24T00:04:47.621Z,11.22
2023-04-24T00:05:47.547Z,11.23
2023-04-24T00:06:47.540Z,11.27
2023-04-24T00:07:47.519Z,11.31
2023-04-24T00:08:47.508Z,11.34
2023-04-24T00:09:47.526Z,11.31
2023-04-24T00:10:47.486Z,11.31
2023-04-24T00:11:47.466Z,11.31
2023-04-24T00:12:47.466Z,11.30
2023-04-24T00:13:47.450Z,11.27
2023-04-24T00:14:47.448Z,11.27
2023-04-24T00:15:47.421Z,11.30
2023-04-24T00:16:47.437Z,11.27
2023-04-24T00:17:47.433Z,11.30
2023-04-24T00:18:47.385Z,11.26
2023-04-24T00:19:47.378Z,11.27
2023-04-24T00:20:47.356Z,11.26
2023-04-24T00:21:47.328Z,11.26
2023-04-24T00:22:47.320Z,11.25
2023-04-24T00:23:47.300Z,11.26
2023-04-24T00:24:47.317Z,11.25
2023-04-24T00:25:47.291Z,11.22
2023-04-24T00:26:47.280Z,11.19
2023-04-24T00:27:47.250Z,11.20
2023-04-24T00:28:47.248Z,11.20
2023-04-24T00:29:47.249Z,11.19
2023-04-24T00:30:47.214Z,11.19
2023-04-24T00:31:47.279Z,11.19
2023-04-24T00:32:47.230Z,11.19
2023-04-24T00:33:47.172Z,11.19
2023-04-24T00:34:47.185Z,11.20
2023-04-24T00:35:47.160Z,11.19
2023-04-24T00:36:47.141Z,11.19
2023-04-24T00:37:47.123Z,11.20
2023-04-24T00:38:47.119Z,11.19
2023-04-24T00:39:47.113Z,11.18
2023-04-24T00:40:47.092Z,11.16
2023-04-24T00:41:47.065Z,11.16
2023-04-24T00:42:47.058Z,11.15
2023-04-24T00:43:47.054Z,11.15
2023-04-24T00:44:47.044Z,11.12
2023-04-24T00:45:47.119Z,11.15
2023-04-24T00:46:47.005Z,11.13
2023-04-24T00:47:47.001Z,11.12
2023-04-24T00:48:46.973Z,11.15
2023-04-24T00:49:46.978Z,11.15
2023-04-24T00:50:46.946Z,11.18
2023-04-24T00:51:46.934Z,11.16
2023-04-24T00:52:46.970Z,11.16
2023-04-24T00:53:46.910Z,11.18
2023-04-24T00:54:46.912Z,11.19
2023-04-24T00:55:46.887Z,11.19
2023-04-24T00:56:46.866Z,11.20
2023-04-24T00:57:46.862Z,11.23
2023-04-24T00:58:46.862Z,11.25
2023-04-24T00:59:46.846Z,11.26
2023-04-24T01:00:46.819Z,11.26
2023-04-24T01:01:46.964Z,11.27
2023-04-24T01:02:46.970Z,11.26
2023-04-24T01:03:46.938Z,11.26
2023-04-24T01:04:46.773Z,11.25
2023-04-24T01:05:46.746Z,11.23
2023-04-24T01:06:46.760Z,11.25
2023-04-24T01:07:46.872Z,11.25
2023-04-24T01:08:46.710Z,11.25
2023-04-24T01:09:46.713Z,11.25
2023-04-24T01:10:46.688Z,11.26
2023-04-24T01:11:46.679Z,11.30
2023-04-24T01:12:46.683Z,11.30
2023-04-24T01:13:46.647Z,11.34
2023-04-24T01:14:46.654Z,11.34
2023-04-24T01:15:46.628Z,11.37
2023-04-24T01:16:46.615Z,11.37
2023-04-24T01:17:46.612Z,11.37
2023-04-24T01:18:46.577Z,11.37
2023-04-24T01:19:46.576Z,11.35
2023-04-24T01:20:46.554Z,11.34
2023-04-24T01:21:46.544Z,11.35
2023-04-24T01:22:46.530Z,11.37
2023-04-24T01:23:46.518Z,11.40
2023-04-24T01:24:46.499Z,11.43
2023-04-24T01:25:46.505Z,11.45
2023-04-24T01:26:46.472Z,11.49
2023-04-24T01:27:46.460Z,11.51
2023-04-24T01:28:46.458Z,11.52
2023-04-24T01:29:46.421Z,11.56
2023-04-24T01:30:46.443Z,11.55
2023-04-24T01:31:46.535Z,11.58
2023-04-24T01:32:46.433Z,11.59
2023-04-24T01:33:46.383Z,11.62
2023-04-24T01:34:46.380Z,11.65
2023-04-24T01:35:46.369Z,11.68
2023-04-24T01:36:46.368Z,11.71
2023-04-24T01:37:46.392Z,11.74
2023-04-24T01:38:46.328Z,11.73
2023-04-24T01:39:46.307Z,11.76
2023-04-24T01:40:46.323Z,11.77
2023-04-24T01:41:46.263Z,11.78
2023-04-24T01:42:46.267Z,11.78
2023-04-24T01:43:46.334Z,11.78
2023-04-24T01:44:46.238Z,11.80
2023-04-24T01:45:46.241Z,11.78
2023-04-24T01:46:46.240Z,11.80
2023-04-24T01:47:46.245Z,11.81
2023-04-24T01:48:46.187Z,11.81
2023-04-24T01:49:46.260Z,11.83
2023-04-24T01:50:46.186Z,11.83
2023-04-24T01:51:46.140Z,11.81
2023-04-24T01:52:46.132Z,11.80
2023-04-24T01:53:46.109Z,11.81
2023-04-24T01:54:46.116Z,11.81
2023-04-24T01:55:46.101Z,11.81
2023-04-24T01:56:46.089Z,11.83
2023-04-24T01:57:46.060Z,11.83
2023-04-24T01:58:46.053Z,11.83
2023-04-24T01:59:46.049Z,11.81
2023-04-24T02:00:46.050Z,11.81
2023-04-24T02:01:46.032Z,11.78
2023-04-24T02:02:48.169Z,11.76
2023-04-24T02:03:46.183Z,11.74
2023-04-24T02:04:45.967Z,11.73
2023-04-24T02:05:45.976Z,11.70
2023-04-24T02:06:45.966Z,11.67
2023-04-24T02:07:45.964Z,11.67
2023-04-24T02:08:45.913Z,11.67
2023-04-24T02:09:45.888Z,11.67
2023-04-24T02:10:45.893Z,11.63
2023-04-24T02:11:45.888Z,11.60
2023-04-24T02:12:45.841Z,11.59
2023-04-24T02:13:45.851Z,11.59
2023-04-24T02:14:45.837Z,11.58
2023-04-24T02:15:45.848Z,11.56
2023-04-24T02:16:46.048Z,11.59
2023-04-24T02:17:45.925Z,11.60
2023-04-24T02:18:45.785Z,11.60
2023-04-24T02:19:45.807Z,11.62
2023-04-24T02:20:45.756Z,11.65
2023-04-24T02:21:45.767Z,11.67
2023-04-24T02:22:45.724Z,11.68
2023-04-24T02:23:45.718Z,11.70
2023-04-24T02:24:45.697Z,11.70
2023-04-24T02:25:45.715Z,11.71
2023-04-24T02:26:45.695Z,11.70
2023-04-24T02:27:45.652Z,11.71
2023-04-24T02:28:45.706Z,11.73
2023-04-24T02:29:45.896Z,11.73
2023-04-24T02:30:45.643Z,11.67
2023-04-24T02:31:45.689Z,11.65
2023-04-24T02:32:45.606Z,11.63
2023-04-24T02:33:45.585Z,11.60
2023-04-24T02:34:45.566Z,11.62
2023-04-24T02:35:45.557Z,11.62
2023-04-24T02:36:45.566Z,11.62
2023-04-24T02:37:45.530Z,11.63
2023-04-24T02:38:45.543Z,11.59
2023-04-24T02:39:45.501Z,11.60
2023-04-24T02:40:45.480Z,11.62
2023-04-24T02:41:45.501Z,11.60
2023-04-24T02:42:45.456Z,11.63
2023-04-24T02:43:45.448Z,11.65
2023-04-24T02:44:45.423Z,11.63
2023-04-24T02:45:45.482Z,11.63
2023-04-24T02:46:45.420Z,11.63
2023-04-24T02:47:45.460Z,11.65
2023-04-24T02:48:45.394Z,11.63
2023-04-24T02:49:45.521Z,11.63
2023-04-24T02:50:45.345Z,11.63
2023-04-24T02:51:45.348Z,11.63
2023-04-24T02:52:45.326Z,11.63
2023-04-24T02:53:45.314Z,11.62
2023-04-24T02:54:45.309Z,11.58
2023-04-24T02:55:45.286Z,11.53
2023-04-24T02:56:45.291Z,11.55
2023-04-24T02:57:45.265Z,11.53
2023-04-24T02:58:45.247Z,11.51
2023-04-24T02:59:45.265Z,11.52
2023-04-24T03:00:45.212Z,11.51
2023-04-24T03:01:45.543Z,11.51
2023-04-24T03:02:45.413Z,11.49
2023-04-24T03:03:45.349Z,11.48
2023-04-24T03:04:45.262Z,11.44
2023-04-24T03:05:45.162Z,11.43
2023-04-24T03:06:45.149Z,11.43
2023-04-24T03:07:45.129Z,11.41
2023-04-24T03:08:45.103Z,11.41
2023-04-24T03:09:45.333Z,11.44
2023-04-24T03:10:46.998Z,11.43
2023-04-24T03:11:45.079Z,11.44
2023-04-24T03:12:45.060Z,11.41
2023-04-24T03:13:45.050Z,11.40
2023-04-24T03:14:45.029Z,11.41
2023-04-24T03:15:45.046Z,11.40
2023-04-24T03:16:45.024Z,11.37
2023-04-24T03:17:45.051Z,11.38
2023-04-24T03:18:44.977Z,11.40
2023-04-24T03:19:45.185Z,11.41
2023-04-24T03:20:44.952Z,11.38
2023-04-24T03:21:44.954Z,11.38
2023-04-24T03:22:44.924Z,11.37
2023-04-24T03:23:44.911Z,11.37
2023-04-24T03:24:44.937Z,11.38
2023-04-24T03:25:44.895Z,11.38
2023-04-24T03:26:44.909Z,11.37
2023-04-24T03:27:44.866Z,11.38
2023-04-24T03:28:44.846Z,11.40
2023-04-24T03:29:45.001Z,11.38
2023-04-24T03:30:44.825Z,11.38
2023-04-24T03:31:44.881Z,11.38
2023-04-24T03:32:44.847Z,11.37
2023-04-24T03:33:44.801Z,11.35
2023-04-24T03:34:44.754Z,11.34
2023-04-24T03:35:44.756Z,11.33
2023-04-24T03:36:44.751Z,11.31
2023-04-24T03:37:44.736Z,11.27
2023-04-24T03:38:44.711Z,11.25
2023-04-24T03:39:45.169Z,11.23
2023-04-24T03:40:44.681Z,11.13
2023-04-24T03:41:44.694Z,11.04
2023-04-24T03:42:44.674Z,11.01
2023-04-24T03:43:44.648Z,10.98
2023-04-24T03:44:44.652Z,10.97
2023-04-24T03:45:44.607Z,10.92
2023-04-24T03:46:44.657Z,10.90
2023-04-24T03:47:44.621Z,10.86
2023-04-24T03:48:44.584Z,10.82
2023-04-24T03:49:44.757Z,10.80
2023-04-24T03:50:44.561Z,10.82
2023-04-24T03:51:44.554Z,10.83
2023-04-24T03:52:44.536Z,10.82
2023-04-24T03:53:44.517Z,10.79
2023-04-24T03:54:44.590Z,10.79
2023-04-24T03:55:44.492Z,10.77
2023-04-24T03:56:44.504Z,10.80
2023-04-24T03:57:44.464Z,10.82
2023-04-24T03:58:44.424Z,10.83
2023-04-24T03:59:44.632Z,10.84
2023-04-24T04:00:44.424Z,10.84
2023-04-24T04:01:44.426Z,10.86
2023-04-24T04:02:44.517Z,10.84
2023-04-24T04:03:44.616Z,10.83
2023-04-24T04:04:44.615Z,10.82
2023-04-24T04:05:44.349Z,10.83
2023-04-24T04:06:44.344Z,10.84
2023-04-24T04:07:44.325Z,10.87
2023-04-24T04:08:44.302Z,10.84
2023-04-24T04:09:44.574Z,10.84
2023-04-24T04:10:44.282Z,10.82
2023-04-24T04:11:44.280Z,10.79
2023-04-24T04:12:44.253Z,10.76
2023-04-24T04:13:44.240Z,10.69
2023-04-24T04:14:44.233Z,10.65
2023-04-24T04:15:44.213Z,10.62
2023-04-24T04:16:44.301Z,10.61
2023-04-24T04:17:44.251Z,10.61
2023-04-24T04:18:44.169Z,10.58
2023-04-24T04:19:44.587Z,10.57
2023-04-24T04:20:44.142Z,10.53
2023-04-24T04:21:44.149Z,10.51
2023-04-24T04:22:44.745Z,10.46
2023-04-24T04:23:44.110Z,10.39
2023-04-24T04:24:44.159Z,10.36
2023-04-24T04:25:44.079Z,10.31
2023-04-24T04:26:44.075Z,10.30
2023-04-24T04:27:44.053Z,10.27
2023-04-24T04:28:44.038Z,10.31
2023-04-24T04:29:44.273Z,10.33
2023-04-24T04:30:44.004Z,10.28
2023-04-24T04:31:44.060Z,10.27
2023-04-24T04:32:43.982Z,10.27
2023-04-24T04:33:44.106Z,10.27
2023-04-24T04:34:43.946Z,10.17
2023-04-24T04:35:43.953Z,10.15
2023-04-24T04:36:43.959Z,10.13
2023-04-24T04:37:43.928Z,10.15
2023-04-24T04:38:43.962Z,10.18
2023-04-24T04:39:44.189Z,10.17
2023-04-24T04:40:43.909Z,10.17
2023-04-24T04:41:43.875Z,10.17
2023-04-24T04:42:43.836Z,10.20
2023-04-24T04:43:43.823Z,10.18
2023-04-24T04:44:43.821Z,10.15
2023-04-24T04:45:43.850Z,10.17
2023-04-24T04:46:43.803Z,10.17
2023-04-24T04:47:43.803Z,10.18
2023-04-24T04:48:43.760Z,10.20
2023-04-24T04:49:43.897Z,10.21
2023-04-24T04:50:43.762Z,10.27
2023-04-24T04:51:43.733Z,10.43
2023-04-24T04:52:43.704Z,10.59
2023-04-24T04:53:43.694Z,10.75
2023-04-24T04:54:43.682Z,10.86
2023-04-24T04:55:43.660Z,11.10
2023-04-24T04:56:43.685Z,11.27
2023-04-24T04:57:43.648Z,11.43
2023-04-24T04:58:43.621Z,11.51
2023-04-24T04:59:43.873Z,11.70
2023-04-24T05:00:43.596Z,11.86
2023-04-24T05:01:43.649Z,11.99
2023-04-24T05:02:43.733Z,12.12
2023-04-24T05:03:43.727Z,12.25
2023-04-24T05:04:43.981Z,12.36
2023-04-24T05:05:43.546Z,12.45
2023-04-24T05:06:43.553Z,12.37
2023-04-24T05:07:43.504Z,12.15
2023-04-24T05:08:43.498Z,11.93
2023-04-24T05:09:43.658Z,11.70
2023-04-24T05:10:43.645Z,11.51
2023-04-24T05:11:43.457Z,11.31
2023-04-24T05:12:46.190Z,11.13
2023-04-24T05:13:43.482Z,11.01
2023-04-24T05:14:43.422Z,10.92
2023-04-24T05:15:43.400Z,10.83
2023-04-24T05:16:43.411Z,10.75
2023-04-24T05:17:43.492Z,10.67
2023-04-24T05:18:43.363Z,10.64
2023-04-24T05:19:43.595Z,10.59
2023-04-24T05:20:43.337Z,10.53
2023-04-24T05:21:43.348Z,10.49
2023-04-24T05:22:43.307Z,10.43
2023-04-24T05:23:43.276Z,10.42
2023-04-24T05:24:43.285Z,10.42
2023-04-24T05:25:43.266Z,10.43
2023-04-24T05:26:43.269Z,10.43
2023-04-24T05:27:43.229Z,10.46
2023-04-24T05:28:43.211Z,10.49
2023-04-24T05:29:43.459Z,10.51
2023-04-24T05:30:43.192Z,10.51
2023-04-24T05:31:43.239Z,10.49
2023-04-24T05:32:43.196Z,10.46
2023-04-24T05:33:43.157Z,10.43
2023-04-24T05:34:43.147Z,10.46
2023-04-24T05:35:43.136Z,10.48
2023-04-24T05:36:43.149Z,10.51
2023-04-24T05:37:43.099Z,10.57
2023-04-24T05:38:43.124Z,10.59
2023-04-24T05:39:43.351Z,10.62
2023-04-24T05:40:43.080Z,10.62
2023-04-24T05:41:43.075Z,10.57
2023-04-24T05:42:43.040Z,10.57
2023-04-24T05:43:43.030Z,10.59
2023-04-24T05:44:43.020Z,10.58
2023-04-24T05:45:43.018Z,10.58
2023-04-24T05:46:43.111Z,10.61
2023-04-24T05:47:43.006Z,10.62
2023-04-24T05:48:43.977Z,10.67
2023-04-24T05:49:43.198Z,10.67
2023-04-24T05:50:42.917Z,10.68
2023-04-24T05:51:42.921Z,10.68
2023-04-24T05:52:42.947Z,10.71
2023-04-24T05:53:42.896Z,10.71
2023-04-24T05:54:42.876Z,10.71
2023-04-24T05:55:42.865Z,10.67
2023-04-24T05:56:43.305Z,10.65
2023-04-24T05:57:42.896Z,10.65
2023-04-24T05:58:42.827Z,10.64
2023-04-24T05:59:43.060Z,10.65
2023-04-24T06:00:43.095Z,10.64
2023-04-24T06:01:42.868Z,10.61
2023-04-24T06:02:42.921Z,10.62
2023-04-24T06:03:42.861Z,10.61
2023-04-24T06:04:42.906Z,10.62
2023-04-24T06:05:42.730Z,10.61
2023-04-24T06:06:43.123Z,10.59
2023-04-24T06:07:42.863Z,10.59
2023-04-24T06:08:42.720Z,10.61
2023-04-24T06:09:43.024Z,10.59
2023-04-24T06:10:42.675Z,10.61
2023-04-24T06:11:42.646Z,10.62
2023-04-24T06:12:42.729Z,10.62
2023-04-24T06:13:42.628Z,10.61
2023-04-24T06:14:42.620Z,10.62
2023-04-24T06:15:42.597Z,10.61
2023-04-24T06:16:42.647Z,10.62
2023-04-24T06:17:42.661Z,10.62
2023-04-24T06:18:42.568Z,10.58
2023-04-24T06:19:42.815Z,10.58
2023-04-24T06:20:42.567Z,10.57
2023-04-24T06:21:42.515Z,10.62
2023-04-24T06:22:42.530Z,10.62
2023-04-24T06:23:42.492Z,10.62
2023-04-24T06:24:42.501Z,10.58
2023-04-24T06:25:42.461Z,10.53
2023-04-24T06:26:42.467Z,10.53
2023-04-24T06:27:42.458Z,10.53
2023-04-24T06:28:42.436Z,10.55
2023-04-24T06:29:42.610Z,10.49
2023-04-24T06:30:42.407Z,10.51
2023-04-24T06:31:42.417Z,10.51
2023-04-24T06:32:42.401Z,10.55
2023-04-24T06:33:42.380Z,10.57
2023-04-24T06:34:42.342Z,10.53
2023-04-24T06:35:42.321Z,10.53
2023-04-24T06:36:42.317Z,10.53
2023-04-24T06:37:42.316Z,10.53
2023-04-24T06:38:42.320Z,10.55
2023-04-24T06:39:42.544Z,10.57
2023-04-24T06:40:42.278Z,10.58
2023-04-24T06:41:42.252Z,10.59
2023-04-24T06:42:42.260Z,10.59
2023-04-24T06:43:42.229Z,10.58
2023-04-24T06:44:42.304Z,10.57
2023-04-24T06:45:42.215Z,10.57
2023-04-24T06:46:42.227Z,10.55
2023-04-24T06:47:42.232Z,10.55
2023-04-24T06:48:42.158Z,10.57
2023-04-24T06:49:42.371Z,10.57
2023-04-24T06:50:42.138Z,10.58
2023-04-24T06:51:42.119Z,10.57
2023-04-24T06:52:42.298Z,10.57
2023-04-24T06:53:42.086Z,10.57
2023-04-24T06:54:42.092Z,10.58
2023-04-24T06:55:42.080Z,10.58
2023-04-24T06:56:42.066Z,10.57
2023-04-24T06:57:42.046Z,10.59
2023-04-24T06:58:42.069Z,10.62
2023-04-24T06:59:42.233Z,10.65
2023-04-24T07:00:41.998Z,10.67
2023-04-24T07:01:41.990Z,10.68
2023-04-24T07:02:42.130Z,10.72
2023-04-24T07:03:42.075Z,10.79
2023-04-24T07:04:42.030Z,10.84
2023-04-24T07:05:41.931Z,10.84
2023-04-24T07:06:41.918Z,10.82
2023-04-24T07:07:41.922Z,10.84
2023-04-24T07:08:41.918Z,10.84
2023-04-24T07:09:42.076Z,10.86
2023-04-24T07:10:41.865Z,10.87
2023-04-24T07:11:41.870Z,10.90
2023-04-24T07:12:41.863Z,10.92
2023-04-24T07:13:41.830Z,10.97
2023-04-24T07:14:41.815Z,11.00
2023-04-24T07:15:41.834Z,11.00
2023-04-24T07:16:41.839Z,11.00
2023-04-24T07:17:41.834Z,11.02
2023-04-24T07:18:41.762Z,11.04
2023-04-24T07:19:42.036Z,11.05
2023-04-24T07:20:41.736Z,11.07
2023-04-24T07:21:41.715Z,11.07
2023-04-24T07:22:41.729Z,11.10
2023-04-24T07:23:41.695Z,11.10
2023-04-24T07:24:41.682Z,11.12
2023-04-24T07:25:41.664Z,11.13
2023-04-24T07:26:41.655Z,11.13
2023-04-24T07:27:41.645Z,11.15
2023-04-24T07:28:41.626Z,11.18
2023-04-24T07:29:42.107Z,11.20
2023-04-24T07:30:41.603Z,11.22
2023-04-24T07:31:41.638Z,11.25
2023-04-24T07:32:41.643Z,11.25
2023-04-24T07:33:41.563Z,11.25
2023-04-24T07:34:41.539Z,11.25
2023-04-24T07:35:41.552Z,11.20
2023-04-24T07:36:41.524Z,11.19
2023-04-24T07:37:41.536Z,11.18
2023-04-24T07:38:41.541Z,11.18
2023-04-24T07:39:41.787Z,11.18
2023-04-24T07:40:41.468Z,11.19
2023-04-24T07:41:41.452Z,11.19
2023-04-24T07:42:41.584Z,11.19
2023-04-24T07:43:41.423Z,11.16
2023-04-24T07:44:41.410Z,11.15
2023-04-24T07:45:41.400Z,11.15
2023-04-24T07:46:41.415Z,11.15
2023-04-24T07:47:41.540Z,11.16
2023-04-24T07:48:41.361Z,11.15
2023-04-24T07:49:41.727Z,11.18
2023-04-24T07:50:41.341Z,11.16
2023-04-24T07:51:41.357Z,11.19
2023-04-24T07:52:41.326Z,11.20
2023-04-24T07:53:41.283Z,11.22
2023-04-24T07:54:41.507Z,11.26
2023-04-24T07:55:41.306Z,11.26
2023-04-24T07:56:41.254Z,11.27
2023-04-24T07:57:41.243Z,11.27
2023-04-24T07:58:41.242Z,11.33
2023-04-24T07:59:41.278Z,11.31
2023-04-24T08:00:41.207Z,11.31
2023-04-24T08:01:41.193Z,11.30
2023-04-24T08:02:41.369Z,11.33
2023-04-24T08:03:41.363Z,11.34
2023-04-24T08:04:41.352Z,11.35
2023-04-24T08:05:41.317Z,11.35
2023-04-24T08:06:41.122Z,11.38
2023-04-24T08:07:41.133Z,11.41
2023-04-24T08:08:41.094Z,11.38
2023-04-24T08:09:41.141Z,11.37
2023-04-24T08:10:41.070Z,11.35
2023-04-24T08:11:41.120Z,11.37
2023-04-24T08:12:41.060Z,11.37
2023-04-24T08:13:41.026Z,11.35
2023-04-24T08:14:41.244Z,11.35
2023-04-24T08:15:41.094Z,11.34
2023-04-24T08:16:41.093Z,11.38
2023-04-24T08:17:41.276Z,11.41
2023-04-24T08:18:40.949Z,11.43
2023-04-24T08:19:41.186Z,11.44
2023-04-24T08:20:40.931Z,11.48
2023-04-24T08:21:40.927Z,11.49
2023-04-24T08:22:40.989Z,11.49
2023-04-24T08:23:40.873Z,11.52
2023-04-24T08:24:40.882Z,11.52
2023-04-24T08:25:40.854Z,11.53
2023-04-24T08:26:40.855Z,11.55
2023-04-24T08:27:40.837Z,11.56
2023-04-24T08:28:40.819Z,11.55
2023-04-24T08:29:40.925Z,11.53
2023-04-24T08:30:40.800Z,11.52
2023-04-24T08:31:40.801Z,11.55
2023-04-24T08:32:40.854Z,11.56
2023-04-24T08:33:40.748Z,11.56
2023-04-24T08:34:40.760Z,11.58
2023-04-24T08:35:40.736Z,11.62
2023-04-24T08:36:47.160Z,11.62
2023-04-24T08:37:41.727Z,11.65
2023-04-24T08:38:42.697Z,11.65
2023-04-24T08:39:40.801Z,11.60
2023-04-24T08:40:40.666Z,11.60
2023-04-24T08:41:40.644Z,11.56
2023-04-24T08:42:40.661Z,11.51
2023-04-24T08:43:40.646Z,11.49
2023-04-24T08:44:40.632Z,11.48
2023-04-24T08:45:40.639Z,11.51
2023-04-24T08:46:40.629Z,11.49
2023-04-24T08:47:40.685Z,11.49
2023-04-24T08:48:40.558Z,11.45
2023-04-24T08:49:40.581Z,11.45
2023-04-24T08:50:40.532Z,11.48
2023-04-24T08:51:40.526Z,11.45
2023-04-24T08:52:40.532Z,11.45
2023-04-24T08:53:40.501Z,11.45
2023-04-24T08:54:40.487Z,11.48
2023-04-24T08:55:40.469Z,11.48
2023-04-24T08:56:40.442Z,11.48
2023-04-24T08:57:40.513Z,11.51
2023-04-24T08:58:40.416Z,11.52
2023-04-24T08:59:40.431Z,11.51
2023-04-24T09:00:40.414Z,11.49
2023-04-24T09:01:40.439Z,11.45
2023-04-24T09:02:40.492Z,11.45
2023-04-24T09:03:40.477Z,11.49
2023-04-24T09:04:40.448Z,11.49
2023-04-24T09:05:40.327Z,11.48
2023-04-24T09:06:40.312Z,11.48
2023-04-24T09:07:40.354Z,11.45
2023-04-24T09:08:40.287Z,11.49
2023-04-24T09:09:40.337Z,11.51
2023-04-24T09:10:40.253Z,11.53
2023-04-24T09:11:40.250Z,11.56
2023-04-24T09:12:40.247Z,11.58
2023-04-24T09:13:40.216Z,11.58
2023-04-24T09:14:40.216Z,11.59
2023-04-24T09:15:40.216Z,11.59
2023-04-24T09:16:40.232Z,11.60
2023-04-24T09:17:40.224Z,11.59
2023-04-24T09:18:40.154Z,11.51
2023-04-24T09:19:40.334Z,11.48
2023-04-24T09:20:40.114Z,11.45
2023-04-24T09:21:40.126Z,11.44
2023-04-24T09:22:40.121Z,11.43
2023-04-24T09:23:40.094Z,11.41
2023-04-24T09:24:40.071Z,11.41
2023-04-24T09:25:40.059Z,11.38
2023-04-24T09:26:40.041Z,11.34
2023-04-24T09:27:40.046Z,11.35
2023-04-24T09:28:40.356Z,11.38
2023-04-24T09:29:40.035Z,11.41
2023-04-24T09:30:40.000Z,11.43
2023-04-24T09:31:40.022Z,11.44
2023-04-24T09:32:39.984Z,11.44
2023-04-24T09:33:39.982Z,11.41
2023-04-24T09:34:39.943Z,11.40
2023-04-24T09:35:39.918Z,11.40
2023-04-24T09:36:39.933Z,11.37
2023-04-24T09:37:43.513Z,11.37
2023-04-24T09:38:39.917Z,11.37
2023-04-24T09:39:39.876Z,11.40
2023-04-24T09:40:41.626Z,11.40
2023-04-24T09:41:39.850Z,11.37
2023-04-24T09:42:39.838Z,11.30
2023-04-24T09:43:39.848Z,11.25
2023-04-24T09:44:39.818Z,11.30
2023-04-24T09:45:39.822Z,11.30
2023-04-24T09:46:39.832Z,11.30
2023-04-24T09:47:39.822Z,11.27
2023-04-24T09:48:39.793Z,11.26
2023-04-24T09:49:39.766Z,11.26
2023-04-24T09:50:39.733Z,11.27
2023-04-24T09:51:39.720Z,11.27
2023-04-24T09:52:39.706Z,11.26
2023-04-24T09:53:39.709Z,11.25
2023-04-24T09:54:39.680Z,11.25
2023-04-24T09:55:39.658Z,11.12
2023-04-24T09:56:39.651Z,11.04
2023-04-24T09:57:39.675Z,10.92
2023-04-24T09:58:39.632Z,10.83
2023-04-24T09:59:39.612Z,10.72
2023-04-24T10:00:39.613Z,10.61
2023-04-24T10:01:39.629Z,10.53
2023-04-24T10:02:39.609Z,10.42
2023-04-24T10:03:39.680Z,10.41
2023-04-24T10:04:39.561Z,10.41
2023-04-24T10:05:39.538Z,10.38
2023-04-24T10:06:39.531Z,10.15
2023-04-24T10:07:39.496Z,10.05
2023-04-24T10:08:39.580Z,9.99
2023-04-24T10:09:39.479Z,10.03
2023-04-24T10:10:39.448Z,10.07
2023-04-24T10:11:39.480Z,10.15
2023-04-24T10:12:39.447Z,10.17
2023-04-24T10:13:39.466Z,10.21
2023-04-24T10:14:39.412Z,10.25
2023-04-24T10:15:39.435Z,10.27
2023-04-24T10:16:39.413Z,10.33
2023-04-24T10:17:39.402Z,10.36
2023-04-24T10:18:39.462Z,10.24
2023-04-24T10:19:39.343Z,10.28
2023-04-24T10:20:39.323Z,10.36
2023-04-24T10:21:39.311Z,10.42
2023-04-24T10:22:39.294Z,10.49
2023-04-24T10:23:39.382Z,10.55
2023-04-24T10:24:39.270Z,10.61
2023-04-24T10:25:39.267Z,10.68
2023-04-24T10:26:39.277Z,10.77
2023-04-24T10:27:39.232Z,10.82
2023-04-24T10:28:39.238Z,10.87
2023-04-24T10:29:39.221Z,10.90
2023-04-24T10:30:39.197Z,10.95
2023-04-24T10:31:39.283Z,11.01
2023-04-24T10:32:39.281Z,11.02
2023-04-24T10:33:39.171Z,11.05
2023-04-24T10:34:39.137Z,11.10
2023-04-24T10:35:39.131Z,11.27
2023-04-24T10:36:39.107Z,11.67
2023-04-24T10:37:39.102Z,11.96
2023-04-24T10:38:39.128Z,11.91
2023-04-24T10:39:39.118Z,11.95
2023-04-24T10:40:39.054Z,11.88
2023-04-24T10:41:39.081Z,11.83
2023-04-24T10:42:39.030Z,11.73
2023-04-24T10:43:39.055Z,11.71
2023-04-24T10:44:39.016Z,11.63
2023-04-24T10:45:38.990Z,11.59
2023-04-24T10:46:38.985Z,11.60
2023-04-24T10:47:39.010Z,11.43
2023-04-24T10:48:38.968Z,11.41
2023-04-24T10:49:38.948Z,11.44
2023-04-24T10:50:38.909Z,11.48
2023-04-24T10:51:38.924Z,11.58
2023-04-24T10:52:38.900Z,11.56
2023-04-24T10:53:38.915Z,11.65
2023-04-24T10:54:38.869Z,11.74
2023-04-24T10:55:38.851Z,11.80
2023-04-24T10:56:38.841Z,11.85
2023-04-24T10:57:38.831Z,11.88
2023-04-24T10:58:38.830Z,11.81
2023-04-24T10:59:38.836Z,11.74
2023-04-24T11:00:38.843Z,11.76
2023-04-24T11:01:38.782Z,11.68
2023-04-24T11:02:38.879Z,11.67
2023-04-24T11:03:39.038Z,11.65
2023-04-24T11:04:38.805Z,11.62
2023-04-24T11:05:38.733Z,11.53
2023-04-24T11:06:38.745Z,11.51
2023-04-24T11:07:38.770Z,11.48
2023-04-24T11:08:38.725Z,11.45
2023-04-24T11:09:38.693Z,11.44
2023-04-24T11:10:38.653Z,11.40
2023-04-24T11:11:38.646Z,11.37
2023-04-24T11:12:38.677Z,11.40
2023-04-24T11:13:38.666Z,11.37
2023-04-24T11:14:38.605Z,11.33
2023-04-24T11:15:38.598Z,11.31
2023-04-24T11:16:38.627Z,11.34
2023-04-24T11:17:38.671Z,11.38
2023-04-24T11:18:38.583Z,11.44
2023-04-24T11:19:38.588Z,11.49
2023-04-24T11:20:38.518Z,11.45
2023-04-24T11:21:38.516Z,11.51
2023-04-24T11:22:38.500Z,11.53
2023-04-24T11:23:38.537Z,11.59
2023-04-24T11:24:38.506Z,11.58
2023-04-24T11:25:38.486Z,11.60
2023-04-24T11:26:38.456Z,11.53
2023-04-24T11:27:38.412Z,11.55
2023-04-24T11:28:39.009Z,11.51
2023-04-24T11:29:38.460Z,11.51
2023-04-24T11:30:38.405Z,11.51
2023-04-24T11:31:38.462Z,11.48
2023-04-24T11:32:38.403Z,11.49
2023-04-24T11:33:38.349Z,11.51
2023-04-24T11:34:38.342Z,11.52
2023-04-24T11:35:38.342Z,11.53
2023-04-24T11:36:38.312Z,11.58
2023-04-24T11:37:38.298Z,11.58
2023-04-24T11:38:38.278Z,11.59
2023-04-24T11:39:38.305Z,11.56
2023-04-24T11:40:38.258Z,11.53
2023-04-24T11:41:38.254Z,11.52
2023-04-24T11:42:38.219Z,11.51
2023-04-24T11:43:38.224Z,11.53
2023-04-24T11:44:38.214Z,11.55
2023-04-24T11:45:45.801Z,11.56
2023-04-24T11:46:38.204Z,11.53
2023-04-24T11:47:38.352Z,11.26
2023-04-24T11:48:38.192Z,11.18
2023-04-24T11:49:38.141Z,11.04
2023-04-24T11:50:38.401Z,10.87
2023-04-24T11:51:52.023Z,10.71
2023-04-24T11:52:39.122Z,10.55
2023-04-24T11:53:38.050Z,10.48
2023-04-24T11:54:38.088Z,10.33
2023-04-24T11:55:38.072Z,10.23
2023-04-24T11:56:38.780Z,10.09
2023-04-24T11:57:38.140Z,10.07
2023-04-24T11:58:37.983Z,10.05
2023-04-24T11:59:38.107Z,10.06
2023-04-24T12:00:38.255Z,10.09
2023-04-24T12:01:37.942Z,10.12
2023-04-24T12:02:40.139Z,10.15
2023-04-24T12:03:38.141Z,10.23
2023-04-24T12:04:38.218Z,10.65
2023-04-24T12:05:38.091Z,11.04
2023-04-24T12:06:37.895Z,11.20
2023-04-24T12:07:38.157Z,11.43
2023-04-24T12:08:38.542Z,11.80
2023-04-24T12:09:38.238Z,12.03
2023-04-24T12:10:37.818Z,12.23
2023-04-24T12:11:37.854Z,12.25
2023-04-24T12:12:37.901Z,12.39
2023-04-24T12:13:37.822Z,12.45
2023-04-24T12:14:37.788Z,12.17
2023-04-24T12:15:37.820Z,12.02
2023-04-24T12:16:37.923Z,11.97
2023-04-24T12:17:37.972Z,11.88
2023-04-24T12:18:37.799Z,11.89
2023-04-24T12:19:37.874Z,12.03
2023-04-24T12:20:37.689Z,12.07
2023-04-24T12:21:37.895Z,12.20
2023-04-24T12:22:37.665Z,12.36
2023-04-24T12:23:37.712Z,12.44
2023-04-24T12:24:37.653Z,12.43
2023-04-24T12:25:37.870Z,12.50
2023-04-24T12:26:37.695Z,12.48
2023-04-24T12:27:37.594Z,12.47
2023-04-24T12:28:37.942Z,12.43
2023-04-24T12:29:37.916Z,12.37
2023-04-24T12:30:37.618Z,12.30
2023-04-24T12:31:37.730Z,12.00
2023-04-24T12:32:37.709Z,11.97
2023-04-24T12:33:37.775Z,12.08
2023-04-24T12:34:37.643Z,12.35
2023-04-24T12:35:37.619Z,12.75
2023-04-24T12:36:37.491Z,13.03
2023-04-24T12:37:37.554Z,13.26
2023-04-24T12:38:37.585Z,13.37
2023-04-24T12:39:37.532Z,13.50
2023-04-24T12:40:37.493Z,13.57
2023-04-24T12:41:37.698Z,13.61
2023-04-24T12:42:37.490Z,13.54
2023-04-24T12:43:37.606Z,13.45
2023-04-24T12:44:37.512Z,13.42
2023-04-24T12:45:37.386Z,13.12
2023-04-24T12:46:37.443Z,12.90
2023-04-24T12:47:37.331Z,12.75
2023-04-24T12:48:37.407Z,12.80
2023-04-24T12:49:37.306Z,12.81
2023-04-24T12:50:37.360Z,12.75
2023-04-24T12:51:37.426Z,12.75
2023-04-24T12:52:37.403Z,12.66